AFL1040 UUEE-URSS
Flight info
| Callsign | AFL1040 |
|---|---|
| Flight time | N/A |
| Altitude | 35000 |
| Route | TOGMO3J TOGMO M56 ABAGI B105 NIMTA/K0824F340 B105 NATIT/K0830F350 DCT MOLED N50 LIDUS/K0841F360 G242 ZG/K0841F350 DCT ITAKA/K0848F360 DCT OBBUD DCT AMKOL DCT GOTIK DCT MEMZA DCT VENFO DCT BINOL BINOL1K |
| Aircraft | A321/M-SDE3FGHIRWY/LB1 |
Departure
| Time | N/A |
|---|---|
| Airport | Sheremetyevo International Airport (UUEE) |
Arrival
| Time | 2026-05-05 10:59 |
|---|---|
| Airport | Sochi International Airport (URSS) |
| Time | Latitude | Longitude | Altitude | Speed | Heading |
|---|---|---|---|---|---|
| 2026-05-05 10:23 | 43.65627 | 43.30830 | 35967 ft | 439 kts | 269° |
| 2026-05-05 10:23 | 43.65756 | 43.25187 | 35955 ft | 439 kts | 269° |
| 2026-05-05 10:24 | 43.65947 | 43.16751 | 35959 ft | 440 kts | 269° |
| 2026-05-05 10:24 | 43.66126 | 43.08362 | 35957 ft | 440 kts | 269° |
| 2026-05-05 10:25 | 43.66295 | 42.99915 | 35954 ft | 440 kts | 269° |
| 2026-05-05 10:25 | 43.66472 | 42.91457 | 35963 ft | 441 kts | 269° |
| 2026-05-05 10:26 | 43.66636 | 42.82981 | 35954 ft | 442 kts | 269° |
| 2026-05-05 10:26 | 43.66790 | 42.74543 | 35942 ft | 443 kts | 269° |
| 2026-05-05 10:27 | 43.66936 | 42.66023 | 35944 ft | 444 kts | 269° |
| 2026-05-05 10:27 | 43.67080 | 42.57501 | 35935 ft | 444 kts | 269° |
| 2026-05-05 10:28 | 43.67223 | 42.48980 | 35932 ft | 444 kts | 269° |
| 2026-05-05 10:28 | 43.67357 | 42.40511 | 35943 ft | 445 kts | 269° |
| 2026-05-05 10:29 | 43.67489 | 42.31967 | 35931 ft | 445 kts | 269° |
| 2026-05-05 10:29 | 43.67612 | 42.23409 | 35927 ft | 445 kts | 269° |
| 2026-05-05 10:30 | 43.67718 | 42.14850 | 35919 ft | 446 kts | 268° |
| 2026-05-05 10:30 | 43.67818 | 42.06349 | 35917 ft | 446 kts | 268° |
| 2026-05-05 10:31 | 43.67923 | 41.97779 | 35922 ft | 447 kts | 268° |
| 2026-05-05 10:31 | 43.68025 | 41.89211 | 35914 ft | 446 kts | 268° |
| 2026-05-05 10:32 | 43.68113 | 41.80633 | 35913 ft | 447 kts | 268° |
| 2026-05-05 10:32 | 43.68198 | 41.72049 | 35902 ft | 447 kts | 268° |
| 2026-05-05 10:33 | 43.68275 | 41.63514 | 35910 ft | 448 kts | 268° |
| 2026-05-05 10:33 | 43.68340 | 41.54911 | 35915 ft | 448 kts | 268° |
| 2026-05-05 10:34 | 43.68397 | 41.46290 | 35758 ft | 449 kts | 268° |
| 2026-05-05 10:34 | 43.68428 | 41.41973 | 35513 ft | 451 kts | 268° |
| 2026-05-05 10:34 | 43.68456 | 41.37638 | 35276 ft | 451 kts | 268° |
| 2026-05-05 10:35 | 43.68486 | 41.33358 | 35041 ft | 452 kts | 267° |
| 2026-05-05 10:35 | 43.68515 | 41.29019 | 34823 ft | 452 kts | 268° |
| 2026-05-05 10:35 | 43.68541 | 41.24661 | 34573 ft | 453 kts | 269° |
| 2026-05-05 10:35 | 43.68563 | 41.20286 | 33714 ft | 460 kts | 269° |
| 2026-05-05 10:36 | 43.68581 | 41.15835 | 32920 ft | 463 kts | 269° |
| 2026-05-05 10:36 | 43.68597 | 41.11418 | 32433 ft | 458 kts | 269° |
| 2026-05-05 10:36 | 43.68613 | 41.07032 | 31853 ft | 455 kts | 269° |
| 2026-05-05 10:36 | 43.68630 | 41.02667 | 31290 ft | 453 kts | 269° |
| 2026-05-05 10:37 | 43.68640 | 40.99790 | 30924 ft | 452 kts | 269° |
| 2026-05-05 10:37 | 43.68652 | 40.94049 | 30185 ft | 450 kts | 269° |
| 2026-05-05 10:37 | 43.68657 | 40.89731 | 29570 ft | 450 kts | 269° |
| 2026-05-05 10:37 | 43.68665 | 40.85430 | 29029 ft | 446 kts | 269° |
| 2026-05-05 10:38 | 43.68685 | 40.81158 | 28479 ft | 443 kts | 269° |
| 2026-05-05 10:38 | 43.68711 | 40.76914 | 27932 ft | 441 kts | 269° |
| 2026-05-05 10:38 | 43.68739 | 40.72693 | 27412 ft | 438 kts | 269° |
| 2026-05-05 10:38 | 43.68754 | 40.69909 | 27047 ft | 437 kts | 269° |
| 2026-05-05 10:39 | 43.68771 | 40.65735 | 26537 ft | 432 kts | 269° |
| 2026-05-05 10:39 | 43.68789 | 40.60275 | 25873 ft | 427 kts | 269° |
| 2026-05-05 10:39 | 43.68798 | 40.56186 | 25391 ft | 422 kts | 269° |
| 2026-05-05 10:39 | 43.68806 | 40.52152 | 24916 ft | 418 kts | 269° |
| 2026-05-05 10:40 | 43.68815 | 40.48152 | 24447 ft | 415 kts | 269° |
| 2026-05-05 10:40 | 43.68824 | 40.44187 | 23980 ft | 411 kts | 269° |
| 2026-05-05 10:40 | 43.68829 | 40.41581 | 23673 ft | 408 kts | 269° |
| 2026-05-05 10:40 | 43.68833 | 40.37676 | 23184 ft | 404 kts | 269° |
| 2026-05-05 10:41 | 43.68835 | 40.33815 | 22687 ft | 399 kts | 269° |
| 2026-05-05 10:41 | 43.68835 | 40.28780 | 22076 ft | 392 kts | 269° |
| 2026-05-05 10:41 | 43.68833 | 40.25036 | 21608 ft | 388 kts | 269° |
| 2026-05-05 10:41 | 43.68830 | 40.21333 | 21148 ft | 384 kts | 268° |
| 2026-05-05 10:42 | 43.68306 | 40.15355 | 20386 ft | 374 kts | 249° |
| 2026-05-05 10:42 | 43.67180 | 40.12173 | 19987 ft | 364 kts | 233° |
| 2026-05-05 10:42 | 43.65552 | 40.09558 | 19896 ft | 357 kts | 219° |
| 2026-05-05 10:43 | 43.63542 | 40.07583 | 19819 ft | 354 kts | 206° |
| 2026-05-05 10:43 | 43.61319 | 40.06144 | 19640 ft | 353 kts | 202° |
| 2026-05-05 10:43 | 43.58366 | 40.04289 | 19319 ft | 351 kts | 202° |
| 2026-05-05 10:43 | 43.56865 | 40.03348 | 19162 ft | 350 kts | 202° |
| 2026-05-05 10:44 | 43.54654 | 40.01962 | 18922 ft | 349 kts | 202° |
| 2026-05-05 10:44 | 43.52477 | 40.00596 | 18685 ft | 347 kts | 202° |
| 2026-05-05 10:44 | 43.50281 | 39.99224 | 18452 ft | 346 kts | 202° |
| 2026-05-05 10:44 | 43.48086 | 39.97857 | 18176 ft | 346 kts | 202° |
| 2026-05-05 10:45 | 43.45903 | 39.96502 | 17798 ft | 343 kts | 201° |
| 2026-05-05 10:45 | 43.43669 | 39.95400 | 17420 ft | 340 kts | 197° |
| 2026-05-05 10:45 | 43.41427 | 39.94384 | 17051 ft | 338 kts | 197° |
| 2026-05-05 10:45 | 43.39200 | 39.93367 | 16680 ft | 336 kts | 197° |
| 2026-05-05 10:46 | 43.36983 | 39.92351 | 16317 ft | 335 kts | 197° |
| 2026-05-05 10:46 | 43.34810 | 39.91357 | 15953 ft | 333 kts | 197° |
| 2026-05-05 10:46 | 43.32616 | 39.90357 | 15587 ft | 331 kts | 197° |
| 2026-05-05 10:46 | 43.30434 | 39.89360 | 15228 ft | 329 kts | 197° |
| 2026-05-05 10:47 | 43.28264 | 39.88373 | 14872 ft | 328 kts | 197° |
| 2026-05-05 10:47 | 43.26105 | 39.87396 | 14515 ft | 326 kts | 197° |
| 2026-05-05 10:47 | 43.23954 | 39.86424 | 14238 ft | 325 kts | 197° |
| 2026-05-05 10:47 | 43.21808 | 39.85454 | 13999 ft | 324 kts | 197° |
| 2026-05-05 10:48 | 43.19671 | 39.84487 | 13759 ft | 322 kts | 197° |
| 2026-05-05 10:48 | 43.17587 | 39.83543 | 13465 ft | 317 kts | 197° |
| 2026-05-05 10:48 | 43.15507 | 39.82601 | 13085 ft | 313 kts | 197° |
| 2026-05-05 10:48 | 43.13446 | 39.81670 | 12684 ft | 310 kts | 197° |
| 2026-05-05 10:49 | 43.11403 | 39.80748 | 12290 ft | 308 kts | 197° |
| 2026-05-05 10:49 | 43.09371 | 39.79833 | 11892 ft | 306 kts | 197° |
| 2026-05-05 10:49 | 43.07436 | 39.78667 | 11491 ft | 305 kts | 213° |
| 2026-05-05 10:49 | 43.05969 | 39.76597 | 11098 ft | 305 kts | 238° |
| 2026-05-05 10:50 | 43.05241 | 39.73937 | 10759 ft | 303 kts | 260° |
| 2026-05-05 10:50 | 43.05309 | 39.71134 | 10182 ft | 293 kts | 284° |
| 2026-05-05 10:50 | 43.05921 | 39.68506 | 9871 ft | 290 kts | 287° |
| 2026-05-05 10:50 | 43.06546 | 39.65855 | 9211 ft | 290 kts | 288° |
| 2026-05-05 10:51 | 43.07387 | 39.63482 | 8880 ft | 271 kts | 308° |
| 2026-05-05 10:51 | 43.08786 | 39.61848 | 8437 ft | 262 kts | 334° |
| 2026-05-05 10:51 | 43.10517 | 39.61155 | 8088 ft | 262 kts | 357° |
| 2026-05-05 10:51 | 43.12319 | 39.61424 | 7704 ft | 260 kts | 12° |
| 2026-05-05 10:52 | 43.14061 | 39.61935 | 7294 ft | 258 kts | 12° |
| 2026-05-05 10:52 | 43.15799 | 39.62430 | 6870 ft | 253 kts | 11° |
| 2026-05-05 10:52 | 43.17521 | 39.62912 | 6378 ft | 252 kts | 10° |
| 2026-05-05 10:52 | 43.19211 | 39.63384 | 5922 ft | 245 kts | 11° |
| 2026-05-05 10:53 | 43.20832 | 39.63842 | 5766 ft | 228 kts | 13° |
| 2026-05-05 10:53 | 43.22236 | 39.64721 | 5701 ft | 220 kts | 37° |
| 2026-05-05 10:53 | 43.23265 | 39.66250 | 5625 ft | 219 kts | 58° |
| 2026-05-05 10:53 | 43.23831 | 39.68174 | 5384 ft | 218 kts | 72° |
| 2026-05-05 10:54 | 43.24285 | 39.70148 | 5115 ft | 217 kts | 72° |
| 2026-05-05 10:54 | 43.24727 | 39.72089 | 4841 ft | 216 kts | 72° |
| 2026-05-05 10:54 | 43.25173 | 39.74050 | 4564 ft | 215 kts | 72° |
| 2026-05-05 10:54 | 43.25619 | 39.76003 | 4290 ft | 214 kts | 72° |
| 2026-05-05 10:55 | 43.26064 | 39.77949 | 4007 ft | 213 kts | 72° |
| 2026-05-05 10:55 | 43.26510 | 39.79886 | 3744 ft | 213 kts | 72° |
| 2026-05-05 10:55 | 43.27137 | 39.81703 | 3472 ft | 211 kts | 53° |
| 2026-05-05 10:55 | 43.28211 | 39.83054 | 3218 ft | 210 kts | 31° |
| 2026-05-05 10:56 | 43.29487 | 39.84014 | 2971 ft | 209 kts | 28° |
| 2026-05-05 10:56 | 43.30746 | 39.84951 | 2715 ft | 209 kts | 28° |
| 2026-05-05 10:56 | 43.32021 | 39.85906 | 2460 ft | 209 kts | 28° |
| 2026-05-05 10:56 | 43.33293 | 39.86857 | 2194 ft | 208 kts | 27° |
| 2026-05-05 10:57 | 43.34564 | 39.87806 | 1932 ft | 208 kts | 27° |
| 2026-05-05 10:57 | 43.35831 | 39.88757 | 1670 ft | 207 kts | 27° |
| 2026-05-05 10:57 | 43.37043 | 39.89665 | 1414 ft | 189 kts | 27° |
| 2026-05-05 10:57 | 43.38148 | 39.90493 | 1209 ft | 172 kts | 27° |
| 2026-05-05 10:58 | 43.39138 | 39.91235 | 992 ft | 155 kts | 27° |
| 2026-05-05 10:58 | 43.40065 | 39.91930 | 792 ft | 149 kts | 27° |
| 2026-05-05 10:58 | 43.40957 | 39.92599 | 606 ft | 147 kts | 27° |
| 2026-05-05 10:58 | 43.41851 | 39.93271 | 438 ft | 146 kts | 27° |
| 2026-05-05 10:59 | 43.42739 | 39.93942 | 295 ft | 146 kts | 27° |
| 2026-05-05 10:59 | 43.43630 | 39.94610 | 109 ft | 144 kts | 26° |
| 2026-05-05 10:59 | 43.44418 | 39.95200 | 80 ft | 104 kts | 28° |
| 2026-05-05 10:59 | 43.44892 | 39.95554 | 71 ft | 47 kts | 27° |
| 2026-05-05 11:00 | 43.44996 | 39.95553 | 66 ft | 10 kts | 336° |
| 2026-05-05 11:00 | 43.45069 | 39.95490 | 67 ft | 16 kts | 308° |
| 2026-05-05 11:00 | 43.45083 | 39.95333 | 74 ft | 18 kts | 253° |
| 2026-05-05 11:00 | 43.45022 | 39.95165 | 66 ft | 23 kts | 239° |
| 2026-05-05 11:01 | 43.44939 | 39.94966 | 69 ft | 25 kts | 244° |
| 2026-05-05 11:01 | 43.44866 | 39.94755 | 68 ft | 24 kts | 244° |
| 2026-05-05 11:01 | 43.44795 | 39.94546 | 68 ft | 19 kts | 244° |
| 2026-05-05 11:01 | 43.44772 | 39.94413 | 67 ft | 10 kts | 301° |
| 2026-05-05 11:02 | 43.44798 | 39.94388 | 67 ft | 1 kts | 333° |
| 2026-05-05 11:02 | 43.44806 | 39.94382 | 60 ft | 3 kts | 334° |
| 2026-05-05 11:02 | 43.44808 | 39.94381 | 67 ft | 0 kts | 333° |